createdAt,value
2019-05-26T10:56:16.437Z,99.90
2019-05-26T10:58:46.149Z,99.90
2019-05-26T11:01:15.289Z,99.90
2019-05-26T11:03:44.376Z,99.90
2019-05-26T11:06:13.977Z,99.90
2019-05-26T11:08:43.060Z,99.90
2019-05-26T11:11:12.133Z,99.90
2019-05-26T11:13:41.100Z,99.90
2019-05-26T11:16:10.026Z,99.90
2019-05-26T11:18:39.076Z,99.90
2019-05-26T11:21:12.106Z,99.90
2019-05-26T11:23:39.516Z,99.90
2019-05-26T11:26:08.637Z,99.90
2019-05-26T11:28:37.871Z,99.90
2019-05-26T11:31:07.009Z,99.90
2019-05-26T11:33:36.160Z,99.90
2019-05-26T11:36:05.150Z,99.90
2019-05-26T11:42:54.178Z,99.70
2019-05-26T11:46:02.879Z,99.10
2019-05-26T11:48:32.123Z,97.70
2019-05-26T11:51:01.233Z,97.20
2019-05-26T11:53:30.214Z,97.20
2019-05-26T11:55:59.294Z,98.00
2019-05-26T11:58:28.313Z,96.80
2019-05-26T12:26:10.204Z,92.50
2019-05-26T12:28:39.110Z,92.30
2019-05-26T12:31:08.082Z,92.20
2019-05-26T12:33:37.231Z,90.50
2019-05-26T12:36:06.096Z,91.00
2019-05-26T12:38:37.621Z,91.40
2019-05-26T12:41:06.426Z,91.40
2019-05-26T12:43:35.283Z,90.30
2019-05-26T12:46:04.638Z,90.00
2019-05-26T12:48:33.488Z,89.10
2019-05-26T12:51:02.300Z,89.90
2019-05-26T12:53:31.149Z,89.60
2019-05-26T12:55:59.961Z,90.00
2019-05-26T12:58:28.792Z,89.40
2019-05-26T13:00:57.572Z,89.00
2019-05-26T13:03:26.473Z,88.80
2019-05-26T13:05:55.348Z,87.70
2019-05-26T13:08:24.128Z,86.30
2019-05-26T13:10:53.271Z,86.70
2019-05-26T13:13:22.449Z,87.00
2019-05-26T13:15:51.302Z,84.30
2019-05-26T13:18:20.413Z,84.30
2019-05-26T13:20:49.249Z,85.00
2019-05-26T13:23:21.592Z,84.90
2019-05-26T13:25:54.612Z,84.50
2019-05-26T13:28:23.677Z,85.10
2019-05-26T13:30:53.488Z,85.60
2019-05-26T13:33:22.811Z,84.80
2019-05-26T13:35:51.601Z,84.40
2019-05-26T13:38:20.377Z,84.40
2019-05-26T13:40:49.203Z,83.50
2019-05-26T13:43:18.052Z,82.10
2019-05-26T13:45:46.860Z,80.80
2019-05-26T13:48:15.723Z,81.10
2019-05-26T13:50:44.643Z,80.20
2019-05-26T13:53:13.503Z,80.30
2019-05-26T13:55:42.339Z,79.40
2019-05-26T13:58:11.238Z,78.30
2019-05-26T14:00:40.100Z,78.10
2019-05-26T14:03:08.885Z,78.00
2019-05-26T14:05:38.095Z,78.50
2019-05-26T14:08:07.152Z,78.60
2019-05-26T14:10:36.533Z,78.10
2019-05-26T14:13:05.836Z,76.70
2019-05-26T14:15:38.517Z,77.80
2019-05-26T14:18:05.264Z,75.70
2019-05-26T15:12:06.394Z,86.90
2019-05-26T15:14:35.273Z,88.20
2019-05-26T15:17:04.153Z,88.60
2019-05-26T15:19:33.023Z,89.10
2019-05-26T15:22:01.843Z,89.40
2019-05-26T15:24:30.960Z,90.10
2019-05-26T15:26:59.801Z,89.30
2019-05-26T15:29:28.678Z,89.50
2019-05-26T15:31:57.858Z,90.40
2019-05-26T15:34:26.772Z,89.90
